createdAt,value
2023-08-13T00:00:37.335Z,1.67
2023-08-13T00:05:39.206Z,1.15
2023-08-13T00:10:40.984Z,1.35
2023-08-13T00:15:42.707Z,1.38
2023-08-13T00:20:44.253Z,1.20
2023-08-13T00:25:45.838Z,1.23
2023-08-13T00:30:47.396Z,1.02
2023-08-13T00:35:51.759Z,1.35
2023-08-13T00:40:53.662Z,1.45
2023-08-13T00:45:56.196Z,1.27
2023-08-13T00:50:59.659Z,1.40
2023-08-13T00:56:01.557Z,1.40
2023-08-13T01:01:03.279Z,1.15
2023-08-13T01:06:13.857Z,1.38
2023-08-13T01:11:21.352Z,1.38
2023-08-13T01:16:23.396Z,1.38
2023-08-13T01:21:25.018Z,1.48
2023-08-13T01:26:28.026Z,1.30
2023-08-13T01:31:30.283Z,1.27
2023-08-13T01:36:32.220Z,1.17
2023-08-13T01:41:35.457Z,1.50
2023-08-13T01:46:37.154Z,1.17
2023-08-13T01:51:39.005Z,1.40
2023-08-13T01:56:40.569Z,1.35
2023-08-13T02:01:42.114Z,1.38
2023-08-13T02:06:43.740Z,1.77
2023-08-13T02:11:45.293Z,1.50
2023-08-13T02:16:46.911Z,1.45
2023-08-13T02:21:48.526Z,1.60
2023-08-13T02:26:50.101Z,1.80
2023-08-13T02:31:51.812Z,1.55
2023-08-13T02:36:53.460Z,1.63
2023-08-13T02:41:55.070Z,1.50
2023-08-13T02:46:56.749Z,1.95
2023-08-13T02:51:58.425Z,1.70
2023-08-13T02:57:00.890Z,1.80
2023-08-13T03:02:02.524Z,1.35
2023-08-13T03:07:04.208Z,1.73
2023-08-13T03:12:06.020Z,1.45
2023-08-13T03:17:07.593Z,1.77
2023-08-13T03:22:10.001Z,1.55
2023-08-13T03:27:11.567Z,1.75
2023-08-13T03:32:13.473Z,1.35
2023-08-13T03:37:15.300Z,1.98
2023-08-13T03:42:16.891Z,1.70
2023-08-13T03:47:18.626Z,1.40
2023-08-13T03:52:20.210Z,1.20
2023-08-13T03:57:21.868Z,1.20
2023-08-13T04:02:23.570Z,1.30
2023-08-13T04:07:25.252Z,1.10
2023-08-13T04:12:26.873Z,1.17
2023-08-13T04:17:28.475Z,1.17
2023-08-13T04:22:30.087Z,1.08
2023-08-13T04:27:31.640Z,1.08
2023-08-13T04:32:33.465Z,1.30
2023-08-13T04:37:35.093Z,0.95
2023-08-13T04:42:36.697Z,1.25
2023-08-13T04:47:38.289Z,1.25
2023-08-13T04:52:39.922Z,1.00
2023-08-13T04:57:41.668Z,1.20
2023-08-13T05:02:43.301Z,1.05
2023-08-13T05:07:44.925Z,1.13
2023-08-13T05:12:46.555Z,1.08
2023-08-13T05:17:48.179Z,1.38
2023-08-13T05:22:49.813Z,1.25
2023-08-13T05:27:51.447Z,1.65
2023-08-13T05:32:54.855Z,1.55
2023-08-13T05:37:56.619Z,1.50
2023-08-13T05:42:58.230Z,1.48
2023-08-13T05:48:00.153Z,1.58
2023-08-13T05:53:01.938Z,1.63
2023-08-13T05:58:03.589Z,1.40
2023-08-13T06:03:05.319Z,1.50
2023-08-13T06:08:07.071Z,1.88
2023-08-13T06:13:08.665Z,1.40
2023-08-13T06:18:10.249Z,1.58
2023-08-13T06:23:11.782Z,1.40
2023-08-13T06:28:13.383Z,1.48
2023-08-13T06:33:15.287Z,1.65
2023-08-13T06:38:16.860Z,1.52
2023-08-13T06:43:18.542Z,1.40
2023-08-13T06:48:20.693Z,1.92
2023-08-13T06:53:22.318Z,1.38
2023-08-13T06:58:24.693Z,1.85
2023-08-13T07:03:26.265Z,1.77
2023-08-13T07:08:27.872Z,1.63
2023-08-13T07:13:29.531Z,1.98
2023-08-13T07:18:31.182Z,1.90
2023-08-13T07:23:32.752Z,2.00
2023-08-13T07:28:37.106Z,2.25
2023-08-13T07:33:38.700Z,2.15
2023-08-13T07:38:40.276Z,2.30
2023-08-13T07:43:41.823Z,2.45
2023-08-13T07:48:43.638Z,2.47
2023-08-13T07:53:45.369Z,2.78
2023-08-13T07:58:47.082Z,2.80
2023-08-13T08:03:49.218Z,2.97
2023-08-13T08:08:50.808Z,2.80
2023-08-13T08:13:52.573Z,2.90
2023-08-13T08:18:54.186Z,2.45
2023-08-13T08:23:55.785Z,2.72
2023-08-13T08:28:57.376Z,3.13
2023-08-13T08:33:58.980Z,2.70
2023-08-13T08:39:00.564Z,2.38
2023-08-13T08:44:02.163Z,3.25
2023-08-13T08:49:04.238Z,3.15
2023-08-13T08:54:05.955Z,2.65
2023-08-13T08:59:07.527Z,2.78
2023-08-13T09:04:09.768Z,2.13
2023-08-13T09:09:11.462Z,2.10
2023-08-13T09:14:13.036Z,2.00
2023-08-13T09:19:15.261Z,2.20
2023-08-13T09:24:17.487Z,2.20
2023-08-13T09:29:20.195Z,2.35
2023-08-13T09:34:22.323Z,2.40
2023-08-13T09:39:24.733Z,2.20
2023-08-13T09:44:26.334Z,2.10
2023-08-13T09:49:29.883Z,1.58
2023-08-13T09:55:00.772Z,1.88
2023-08-13T10:00:03.156Z,1.67
2023-08-13T10:05:05.209Z,2.80
2023-08-13T10:10:08.722Z,1.20
2023-08-13T10:15:10.816Z,1.30
2023-08-13T10:20:12.560Z,1.10
2023-08-13T10:25:30.554Z,0.98
2023-08-13T10:30:33.907Z,0.90
2023-08-13T10:35:38.907Z,1.00
2023-08-13T10:40:57.925Z,0.90
2023-08-13T10:45:59.989Z,0.80
2023-08-13T10:51:01.756Z,0.70
2023-08-13T10:56:03.647Z,0.60
2023-08-13T11:01:17.915Z,0.77
2023-08-13T11:06:23.454Z,0.40
2023-08-13T11:11:25.200Z,0.55
2023-08-13T11:16:29.567Z,0.60
2023-08-13T11:21:31.243Z,0.60
2023-08-13T11:26:35.785Z,0.40
2023-08-13T11:31:39.554Z,0.43
2023-08-13T11:36:41.221Z,0.40
2023-08-13T11:41:44.124Z,0.40
2023-08-13T11:46:52.885Z,0.50
2023-08-13T11:51:58.013Z,0.73
2023-08-13T11:56:59.661Z,0.50
2023-08-13T12:02:01.922Z,0.50
2023-08-13T12:07:08.504Z,0.30
2023-08-13T12:12:10.087Z,0.40
2023-08-13T12:17:11.893Z,0.40
2023-08-13T12:22:13.800Z,0.30
2023-08-13T12:27:15.665Z,0.25
2023-08-13T12:32:17.817Z,0.30
2023-08-13T12:37:19.661Z,0.43
2023-08-13T12:42:22.019Z,0.25
2023-08-13T12:47:23.863Z,0.40
2023-08-13T12:52:25.583Z,0.30
2023-08-13T12:57:27.378Z,0.30
2023-08-13T13:02:29.901Z,0.20
2023-08-13T13:07:32.096Z,0.30
2023-08-13T13:12:33.902Z,0.30
2023-08-13T13:17:35.578Z,0.28
2023-08-13T13:22:41.542Z,0.25
2023-08-13T13:27:43.404Z,0.30
2023-08-13T13:32:45.062Z,0.40
2023-08-13T13:37:46.676Z,0.20
2023-08-13T13:42:48.322Z,0.30
2023-08-13T13:47:50.081Z,0.32
2023-08-13T13:52:54.551Z,0.38
2023-08-13T13:57:57.761Z,0.40
2023-08-13T14:02:59.647Z,0.30
2023-08-13T14:08:01.492Z,0.20
2023-08-13T14:13:03.064Z,0.20
2023-08-13T14:18:06.110Z,0.20
2023-08-13T14:23:07.938Z,0.28
2023-08-13T14:28:09.651Z,1.20
2023-08-13T14:33:11.321Z,0.30
2023-08-13T14:38:13.678Z,0.22
2023-08-13T14:43:15.348Z,0.30
2023-08-13T14:48:17.179Z,0.57
2023-08-13T14:53:18.774Z,0.30
2023-08-13T14:58:20.317Z,0.30
2023-08-13T15:03:21.936Z,0.20
2023-08-13T15:08:23.602Z,0.57
2023-08-13T15:13:25.210Z,0.32
2023-08-13T15:18:26.786Z,0.30
2023-08-13T15:23:28.348Z,0.38
2023-08-13T15:28:29.914Z,0.40
2023-08-13T15:33:31.638Z,0.57
2023-08-13T15:38:33.659Z,0.40
2023-08-13T15:43:35.241Z,0.40
2023-08-13T15:48:37.044Z,0.60
2023-08-13T15:53:40.387Z,0.93
2023-08-13T15:58:42.786Z,0.70
2023-08-13T16:03:44.378Z,0.57
2023-08-13T16:08:46.604Z,0.57
2023-08-13T16:13:48.198Z,0.57
2023-08-13T16:18:49.904Z,0.90
2023-08-13T16:24:04.842Z,0.88
2023-08-13T16:29:11.482Z,0.87
2023-08-13T16:34:13.069Z,0.73
2023-08-13T16:39:14.724Z,1.35
2023-08-13T16:44:16.285Z,1.33
2023-08-13T16:49:18.079Z,1.00
2023-08-13T16:54:20.390Z,1.10
2023-08-13T16:59:22.211Z,0.88
2023-08-13T17:04:23.858Z,0.93
2023-08-13T17:09:25.478Z,1.10
2023-08-13T17:14:27.017Z,1.10
2023-08-13T17:19:28.713Z,1.35
2023-08-13T17:24:30.279Z,1.45
2023-08-13T17:29:31.916Z,1.10
2023-08-13T17:34:33.904Z,1.20
2023-08-13T17:39:35.602Z,1.00
2023-08-13T17:44:37.225Z,1.95
2023-08-13T17:49:38.938Z,1.60
2023-08-13T17:54:40.538Z,1.60
2023-08-13T17:59:42.121Z,2.80
2023-08-13T18:04:43.747Z,2.22
2023-08-13T18:09:45.346Z,1.50
2023-08-13T18:14:46.951Z,1.85
2023-08-13T18:19:49.154Z,1.40
2023-08-13T18:24:50.875Z,1.35
2023-08-13T18:29:52.640Z,1.30
2023-08-13T18:34:54.281Z,1.50
2023-08-13T18:39:58.024Z,1.02
2023-08-13T18:44:59.985Z,1.30
2023-08-13T18:50:01.923Z,1.30
2023-08-13T18:55:05.570Z,1.25
2023-08-13T19:00:08.797Z,1.30
2023-08-13T19:05:10.561Z,1.92
2023-08-13T19:10:12.223Z,1.42
2023-08-13T19:15:13.774Z,1.58
2023-08-13T19:20:15.836Z,1.35
2023-08-13T19:25:17.441Z,1.63
2023-08-13T19:30:19.123Z,1.38
2023-08-13T19:35:20.726Z,1.20
2023-08-13T19:40:22.299Z,1.50
2023-08-13T19:45:24.462Z,1.20
2023-08-13T19:50:26.266Z,1.55
2023-08-13T19:55:29.434Z,1.70
2023-08-13T20:00:31.052Z,1.40
2023-08-13T20:05:32.658Z,1.67
2023-08-13T20:10:34.266Z,1.40
2023-08-13T20:15:36.395Z,1.83
2023-08-13T20:20:38.015Z,1.30
2023-08-13T20:25:39.657Z,1.85
2023-08-13T20:30:41.338Z,1.60
2023-08-13T20:35:42.922Z,1.73
2023-08-13T20:40:44.518Z,1.95
2023-08-13T20:45:47.024Z,1.60
2023-08-13T20:50:49.576Z,1.63
2023-08-13T20:55:51.142Z,1.95
2023-08-13T21:00:53.159Z,1.92
2023-08-13T21:05:54.898Z,1.70
2023-08-13T21:10:56.692Z,1.90
2023-08-13T21:15:58.266Z,1.65
2023-08-13T21:20:59.890Z,1.58
2023-08-13T21:26:01.515Z,1.85
2023-08-13T21:31:03.160Z,1.77
2023-08-13T21:36:04.989Z,1.63
2023-08-13T21:41:06.576Z,1.83
2023-08-13T21:46:08.566Z,1.83
2023-08-13T21:51:11.370Z,2.00
2023-08-13T21:56:13.001Z,2.35
2023-08-13T22:01:14.681Z,1.60
2023-08-13T22:06:16.247Z,1.58
2023-08-13T22:11:17.818Z,2.00
2023-08-13T22:16:19.632Z,1.50
2023-08-13T22:21:21.221Z,1.98
2023-08-13T22:26:23.462Z,2.05
2023-08-13T22:31:25.293Z,1.90
2023-08-13T22:36:26.860Z,2.05
2023-08-13T22:41:28.403Z,1.85
2023-08-13T22:46:30.086Z,1.88
2023-08-13T22:51:31.807Z,1.58
2023-08-13T22:56:33.391Z,1.73
2023-08-13T23:01:35.051Z,2.05
2023-08-13T23:06:36.681Z,2.05
2023-08-13T23:11:38.320Z,2.17
2023-08-13T23:16:40.037Z,1.95
2023-08-13T23:21:41.606Z,2.25
2023-08-13T23:26:43.285Z,1.98
2023-08-13T23:31:45.097Z,2.38
2023-08-13T23:36:47.493Z,2.08
2023-08-13T23:41:49.895Z,2.05
2023-08-13T23:46:54.698Z,2.08
2023-08-13T23:51:56.366Z,2.20
2023-08-13T23:56:57.912Z,2.03
